<?xml version="1.0" encoding="UTF-8" standalone="no" ?>
<gpx xmlns="http://www.topografix.com/GPX/1/1" xmlns:xsi="http://www.w3.org/2001/XMLSchema-instance" xsi:schemaLocation="http://www.topografix.com/GPX/1/1 http://www.topografix.com/GPX/1/1/gpx.xsd" version="1.1" creator="VisuGPX - https://www.visugpx.com">
  <metadata>
    <name>Col de la Croix Rosier au départ de la D9</name>
  </metadata>
  <trk>
    <name><![CDATA[La Chapelle-de-Guinchay Cyclisme]]></name>
    <extensions>
      <line xmlns="http://www.topografix.com/GPX/gpx_style/0/2">
        <color>0000FF</color>
        <width>4</width>
      </line>
    </extensions>
    <trkseg>
      <trkpt lat="46.08685" lon="4.50164">
        <ele>432.79998779297</ele>
        <time>2021-08-18T14:48:54.000Z</time>
      </trkpt>
      <trkpt lat="46.08662" lon="4.50191">
        <ele>434.60000610352</ele>
        <time>2021-08-18T14:49:02.000Z</time>
      </trkpt>
      <trkpt lat="46.08652" lon="4.50206">
        <ele>435</ele>
        <time>2021-08-18T14:49:06.000Z</time>
      </trkpt>
      <trkpt lat="46.08646" lon="4.50218">
        <ele>435.79998779297</ele>
        <time>2021-08-18T14:49:09.000Z</time>
      </trkpt>
      <trkpt lat="46.08644" lon="4.50222">
        <ele>436</ele>
        <time>2021-08-18T14:49:10.000Z</time>
      </trkpt>
      <trkpt lat="46.08642" lon="4.50237">
        <ele>437.60000610352</ele>
        <time>2021-08-18T14:49:13.000Z</time>
      </trkpt>
      <trkpt lat="46.08641" lon="4.50247">
        <ele>438.60000610352</ele>
        <time>2021-08-18T14:49:15.000Z</time>
      </trkpt>
      <trkpt lat="46.08641" lon="4.50252">
        <ele>439.20001220703</ele>
        <time>2021-08-18T14:49:16.000Z</time>
      </trkpt>
      <trkpt lat="46.08642" lon="4.50267">
        <ele>440.39999389648</ele>
        <time>2021-08-18T14:49:19.000Z</time>
      </trkpt>
      <trkpt lat="46.08645" lon="4.50286">
        <ele>442.39999389648</ele>
        <time>2021-08-18T14:49:23.000Z</time>
      </trkpt>
      <trkpt lat="46.08646" lon="4.50301">
        <ele>443.60000610352</ele>
        <time>2021-08-18T14:49:26.000Z</time>
      </trkpt>
      <trkpt lat="46.08647" lon="4.50314">
        <ele>444.79998779297</ele>
        <time>2021-08-18T14:49:29.000Z</time>
      </trkpt>
      <trkpt lat="46.08648" lon="4.50323">
        <ele>446</ele>
        <time>2021-08-18T14:49:31.000Z</time>
      </trkpt>
      <trkpt lat="46.08648" lon="4.50335">
        <ele>446.79998779297</ele>
        <time>2021-08-18T14:49:34.000Z</time>
      </trkpt>
      <trkpt lat="46.08647" lon="4.50352">
        <ele>447.79998779297</ele>
        <time>2021-08-18T14:49:38.000Z</time>
      </trkpt>
      <trkpt lat="46.08648" lon="4.50369">
        <ele>449.39999389648</ele>
        <time>2021-08-18T14:49:42.000Z</time>
      </trkpt>
      <trkpt lat="46.08649" lon="4.50385">
        <ele>450.60000610352</ele>
        <time>2021-08-18T14:49:46.000Z</time>
      </trkpt>
      <trkpt lat="46.08654" lon="4.50398">
        <ele>451.79998779297</ele>
        <time>2021-08-18T14:49:50.000Z</time>
      </trkpt>
      <trkpt lat="46.08659" lon="4.50407">
        <ele>452.79998779297</ele>
        <time>2021-08-18T14:49:53.000Z</time>
      </trkpt>
      <trkpt lat="46.08668" lon="4.5042">
        <ele>454.79998779297</ele>
        <time>2021-08-18T14:49:58.000Z</time>
      </trkpt>
      <trkpt lat="46.0867" lon="4.50422">
        <ele>455.39999389648</ele>
        <time>2021-08-18T14:49:59.000Z</time>
      </trkpt>
      <trkpt lat="46.08678" lon="4.50429">
        <ele>457.39999389648</ele>
        <time>2021-08-18T14:50:02.000Z</time>
      </trkpt>
      <trkpt lat="46.08686" lon="4.50435">
        <ele>459.39999389648</ele>
        <time>2021-08-18T14:50:05.000Z</time>
      </trkpt>
      <trkpt lat="46.08688" lon="4.50438">
        <ele>460</ele>
        <time>2021-08-18T14:50:06.000Z</time>
      </trkpt>
      <trkpt lat="46.08695" lon="4.50445">
        <ele>462</ele>
        <time>2021-08-18T14:50:09.000Z</time>
      </trkpt>
      <trkpt lat="46.08702" lon="4.50452">
        <ele>463.60000610352</ele>
        <time>2021-08-18T14:50:12.000Z</time>
      </trkpt>
      <trkpt lat="46.08704" lon="4.50455">
        <ele>464</ele>
        <time>2021-08-18T14:50:13.000Z</time>
      </trkpt>
      <trkpt lat="46.08711" lon="4.50462">
        <ele>465.39999389648</ele>
        <time>2021-08-18T14:50:16.000Z</time>
      </trkpt>
      <trkpt lat="46.08715" lon="4.50468">
        <ele>466.20001220703</ele>
        <time>2021-08-18T14:50:18.000Z</time>
      </trkpt>
      <trkpt lat="46.08718" lon="4.50473">
        <ele>466.79998779297</ele>
        <time>2021-08-18T14:50:20.000Z</time>
      </trkpt>
      <trkpt lat="46.08726" lon="4.50483">
        <ele>468.20001220703</ele>
        <time>2021-08-18T14:50:24.000Z</time>
      </trkpt>
      <trkpt lat="46.08728" lon="4.50486">
        <ele>468.39999389648</ele>
        <time>2021-08-18T14:50:25.000Z</time>
      </trkpt>
      <trkpt lat="46.08737" lon="4.50499">
        <ele>469.79998779297</ele>
        <time>2021-08-18T14:50:30.000Z</time>
      </trkpt>
      <trkpt lat="46.08741" lon="4.50505">
        <ele>470</ele>
        <time>2021-08-18T14:50:32.000Z</time>
      </trkpt>
      <trkpt lat="46.08745" lon="4.50511">
        <ele>470.39999389648</ele>
        <time>2021-08-18T14:50:34.000Z</time>
      </trkpt>
      <trkpt lat="46.08748" lon="4.50514">
        <ele>470.60000610352</ele>
        <time>2021-08-18T14:50:35.000Z</time>
      </trkpt>
      <trkpt lat="46.0876" lon="4.50538">
        <ele>471.20001220703</ele>
        <time>2021-08-18T14:50:42.000Z</time>
      </trkpt>
      <trkpt lat="46.08766" lon="4.50551">
        <ele>471.20001220703</ele>
        <time>2021-08-18T14:50:45.000Z</time>
      </trkpt>
      <trkpt lat="46.08771" lon="4.50568">
        <ele>471.39999389648</ele>
        <time>2021-08-18T14:50:48.000Z</time>
      </trkpt>
      <trkpt lat="46.0877" lon="4.50574">
        <ele>470.39999389648</ele>
        <time>2021-08-18T14:50:49.000Z</time>
      </trkpt>
      <trkpt lat="46.08767" lon="4.50583">
        <ele>468.20001220703</ele>
        <time>2021-08-18T14:50:51.000Z</time>
      </trkpt>
      <trkpt lat="46.08756" lon="4.50588">
        <ele>465.79998779297</ele>
        <time>2021-08-18T14:50:54.000Z</time>
      </trkpt>
      <trkpt lat="46.08739" lon="4.50583">
        <ele>463</ele>
        <time>2021-08-18T14:50:58.000Z</time>
      </trkpt>
      <trkpt lat="46.08714" lon="4.50568">
        <ele>462.79998779297</ele>
        <time>2021-08-18T14:51:05.000Z</time>
      </trkpt>
      <trkpt lat="46.08697" lon="4.50559">
        <ele>465.20001220703</ele>
        <time>2021-08-18T14:51:10.000Z</time>
      </trkpt>
      <trkpt lat="46.08689" lon="4.50554">
        <ele>466.60000610352</ele>
        <time>2021-08-18T14:51:13.000Z</time>
      </trkpt>
      <trkpt lat="46.08675" lon="4.50544">
        <ele>468.39999389648</ele>
        <time>2021-08-18T14:51:19.000Z</time>
      </trkpt>
      <trkpt lat="46.08672" lon="4.50543">
        <ele>468.79998779297</ele>
        <time>2021-08-18T14:51:20.000Z</time>
      </trkpt>
      <trkpt lat="46.08657" lon="4.50531">
        <ele>471</ele>
        <time>2021-08-18T14:51:27.000Z</time>
      </trkpt>
      <trkpt lat="46.08644" lon="4.50525">
        <ele>471.79998779297</ele>
        <time>2021-08-18T14:51:32.000Z</time>
      </trkpt>
      <trkpt lat="46.08624" lon="4.50512">
        <ele>471.39999389648</ele>
        <time>2021-08-18T14:51:39.000Z</time>
      </trkpt>
      <trkpt lat="46.08621" lon="4.5051">
        <ele>471.79998779297</ele>
        <time>2021-08-18T14:51:40.000Z</time>
      </trkpt>
      <trkpt lat="46.0861" lon="4.50504">
        <ele>473.60000610352</ele>
        <time>2021-08-18T14:51:44.000Z</time>
      </trkpt>
      <trkpt lat="46.08605" lon="4.50499">
        <ele>473.79998779297</ele>
        <time>2021-08-18T14:51:46.000Z</time>
      </trkpt>
      <trkpt lat="46.08598" lon="4.50491">
        <ele>473.79998779297</ele>
        <time>2021-08-18T14:51:49.000Z</time>
      </trkpt>
      <trkpt lat="46.0859" lon="4.50482">
        <ele>473.20001220703</ele>
        <time>2021-08-18T14:51:53.000Z</time>
      </trkpt>
      <trkpt lat="46.08588" lon="4.5048">
        <ele>473.20001220703</ele>
        <time>2021-08-18T14:51:54.000Z</time>
      </trkpt>
      <trkpt lat="46.08583" lon="4.50475">
        <ele>473</ele>
        <time>2021-08-18T14:51:56.000Z</time>
      </trkpt>
      <trkpt lat="46.08576" lon="4.50468">
        <ele>472.79998779297</ele>
        <time>2021-08-18T14:51:59.000Z</time>
      </trkpt>
      <trkpt lat="46.08571" lon="4.50461">
        <ele>472.79998779297</ele>
        <time>2021-08-18T14:52:02.000Z</time>
      </trkpt>
      <trkpt lat="46.08566" lon="4.50455">
        <ele>473</ele>
        <time>2021-08-18T14:52:04.000Z</time>
      </trkpt>
      <trkpt lat="46.08561" lon="4.5045">
        <ele>473.60000610352</ele>
        <time>2021-08-18T14:52:06.000Z</time>
      </trkpt>
      <trkpt lat="46.08559" lon="4.50448">
        <ele>474</ele>
        <time>2021-08-18T14:52:07.000Z</time>
      </trkpt>
      <trkpt lat="46.08554" lon="4.50444">
        <ele>474.79998779297</ele>
        <time>2021-08-18T14:52:09.000Z</time>
      </trkpt>
      <trkpt lat="46.08543" lon="4.50435">
        <ele>477</ele>
        <time>2021-08-18T14:52:14.000Z</time>
      </trkpt>
      <trkpt lat="46.08541" lon="4.50433">
        <ele>477.39999389648</ele>
        <time>2021-08-18T14:52:15.000Z</time>
      </trkpt>
      <trkpt lat="46.08534" lon="4.50428">
        <ele>478.79998779297</ele>
        <time>2021-08-18T14:52:18.000Z</time>
      </trkpt>
      <trkpt lat="46.0853" lon="4.50424">
        <ele>479.79998779297</ele>
        <time>2021-08-18T14:52:20.000Z</time>
      </trkpt>
      <trkpt lat="46.08522" lon="4.50419">
        <ele>481.60000610352</ele>
        <time>2021-08-18T14:52:23.000Z</time>
      </trkpt>
      <trkpt lat="46.08515" lon="4.50414">
        <ele>482.39999389648</ele>
        <time>2021-08-18T14:52:26.000Z</time>
      </trkpt>
      <trkpt lat="46.08511" lon="4.5041">
        <ele>482.39999389648</ele>
        <time>2021-08-18T14:52:28.000Z</time>
      </trkpt>
      <trkpt lat="46.08501" lon="4.50404">
        <ele>482.20001220703</ele>
        <time>2021-08-18T14:52:32.000Z</time>
      </trkpt>
      <trkpt lat="46.08499" lon="4.50402">
        <ele>482</ele>
        <time>2021-08-18T14:52:33.000Z</time>
      </trkpt>
      <trkpt lat="46.08495" lon="4.50398">
        <ele>481.79998779297</ele>
        <time>2021-08-18T14:52:35.000Z</time>
      </trkpt>
      <trkpt lat="46.08492" lon="4.50396">
        <ele>481.60000610352</ele>
        <time>2021-08-18T14:52:36.000Z</time>
      </trkpt>
      <trkpt lat="46.08488" lon="4.5039">
        <ele>481.20001220703</ele>
        <time>2021-08-18T14:52:38.000Z</time>
      </trkpt>
      <trkpt lat="46.08483" lon="4.50384">
        <ele>480.79998779297</ele>
        <time>2021-08-18T14:52:40.000Z</time>
      </trkpt>
      <trkpt lat="46.08475" lon="4.50375">
        <ele>480.20001220703</ele>
        <time>2021-08-18T14:52:44.000Z</time>
      </trkpt>
      <trkpt lat="46.08474" lon="4.50372">
        <ele>480</ele>
        <time>2021-08-18T14:52:45.000Z</time>
      </trkpt>
      <trkpt lat="46.08471" lon="4.50369">
        <ele>479.79998779297</ele>
        <time>2021-08-18T14:52:46.000Z</time>
      </trkpt>
      <trkpt lat="46.08467" lon="4.50364">
        <ele>479.60000610352</ele>
        <time>2021-08-18T14:52:48.000Z</time>
      </trkpt>
      <trkpt lat="46.08463" lon="4.5036">
        <ele>479.20001220703</ele>
        <time>2021-08-18T14:52:50.000Z</time>
      </trkpt>
      <trkpt lat="46.08461" lon="4.50357">
        <ele>479</ele>
        <time>2021-08-18T14:52:51.000Z</time>
      </trkpt>
      <trkpt lat="46.08457" lon="4.50351">
        <ele>478.39999389648</ele>
        <time>2021-08-18T14:52:53.000Z</time>
      </trkpt>
      <trkpt lat="46.08453" lon="4.50347">
        <ele>478</ele>
        <time>2021-08-18T14:52:55.000Z</time>
      </trkpt>
      <trkpt lat="46.08451" lon="4.50344">
        <ele>477.79998779297</ele>
        <time>2021-08-18T14:52:56.000Z</time>
      </trkpt>
      <trkpt lat="46.08449" lon="4.50342">
        <ele>477.79998779297</ele>
        <time>2021-08-18T14:52:57.000Z</time>
      </trkpt>
      <trkpt lat="46.08444" lon="4.50338">
        <ele>477.79998779297</ele>
        <time>2021-08-18T14:52:59.000Z</time>
      </trkpt>
      <trkpt lat="46.08437" lon="4.50332">
        <ele>477.60000610352</ele>
        <time>2021-08-18T14:53:02.000Z</time>
      </trkpt>
      <trkpt lat="46.08417" lon="4.50317">
        <ele>477.60000610352</ele>
        <time>2021-08-18T14:53:10.000Z</time>
      </trkpt>
      <trkpt lat="46.0841" lon="4.50312">
        <ele>477.60000610352</ele>
        <time>2021-08-18T14:53:13.000Z</time>
      </trkpt>
      <trkpt lat="46.08402" lon="4.50307">
        <ele>477.39999389648</ele>
        <time>2021-08-18T14:53:16.000Z</time>
      </trkpt>
      <trkpt lat="46.08391" lon="4.50303">
        <ele>477.20001220703</ele>
        <time>2021-08-18T14:53:20.000Z</time>
      </trkpt>
      <trkpt lat="46.08389" lon="4.50302">
        <ele>477.39999389648</ele>
        <time>2021-08-18T14:53:21.000Z</time>
      </trkpt>
      <trkpt lat="46.08383" lon="4.50301">
        <ele>477.60000610352</ele>
        <time>2021-08-18T14:53:23.000Z</time>
      </trkpt>
      <trkpt lat="46.08373" lon="4.50304">
        <ele>477.39999389648</ele>
        <time>2021-08-18T14:53:26.000Z</time>
      </trkpt>
      <trkpt lat="46.0837" lon="4.50305">
        <ele>477.20001220703</ele>
        <time>2021-08-18T14:53:27.000Z</time>
      </trkpt>
      <trkpt lat="46.08366" lon="4.50309">
        <ele>477.20001220703</ele>
        <time>2021-08-18T14:53:29.000Z</time>
      </trkpt>
      <trkpt lat="46.08362" lon="4.50318">
        <ele>477.60000610352</ele>
        <time>2021-08-18T14:53:31.000Z</time>
      </trkpt>
      <trkpt lat="46.08361" lon="4.50322">
        <ele>477.60000610352</ele>
        <time>2021-08-18T14:53:32.000Z</time>
      </trkpt>
      <trkpt lat="46.08359" lon="4.50344">
        <ele>478</ele>
        <time>2021-08-18T14:53:36.000Z</time>
      </trkpt>
      <trkpt lat="46.0836" lon="4.50349">
        <ele>478.20001220703</ele>
        <time>2021-08-18T14:53:37.000Z</time>
      </trkpt>
      <trkpt lat="46.08362" lon="4.50362">
        <ele>478.20001220703</ele>
        <time>2021-08-18T14:53:39.000Z</time>
      </trkpt>
      <trkpt lat="46.08364" lon="4.50368">
        <ele>479</ele>
        <time>2021-08-18T14:53:40.000Z</time>
      </trkpt>
      <trkpt lat="46.08368" lon="4.50379">
        <ele>481</ele>
        <time>2021-08-18T14:53:42.000Z</time>
      </trkpt>
      <trkpt lat="46.0837" lon="4.50385">
        <ele>481.60000610352</ele>
        <time>2021-08-18T14:53:43.000Z</time>
      </trkpt>
      <trkpt lat="46.08378" lon="4.50406">
        <ele>484.20001220703</ele>
        <time>2021-08-18T14:53:47.000Z</time>
      </trkpt>
      <trkpt lat="46.08384" lon="4.50421">
        <ele>484.79998779297</ele>
        <time>2021-08-18T14:53:50.000Z</time>
      </trkpt>
      <trkpt lat="46.08391" lon="4.50437">
        <ele>484.79998779297</ele>
        <time>2021-08-18T14:53:53.000Z</time>
      </trkpt>
      <trkpt lat="46.08394" lon="4.50442">
        <ele>484.79998779297</ele>
        <time>2021-08-18T14:53:54.000Z</time>
      </trkpt>
      <trkpt lat="46.08399" lon="4.50451">
        <ele>485</ele>
        <time>2021-08-18T14:53:56.000Z</time>
      </trkpt>
      <trkpt lat="46.08406" lon="4.50459">
        <ele>485.60000610352</ele>
        <time>2021-08-18T14:53:58.000Z</time>
      </trkpt>
      <trkpt lat="46.0841" lon="4.50462">
        <ele>486.39999389648</ele>
        <time>2021-08-18T14:53:59.000Z</time>
      </trkpt>
      <trkpt lat="46.08421" lon="4.50473">
        <ele>488.60000610352</ele>
        <time>2021-08-18T14:54:02.000Z</time>
      </trkpt>
      <trkpt lat="46.08426" lon="4.50477">
        <ele>489.60000610352</ele>
        <time>2021-08-18T14:54:03.000Z</time>
      </trkpt>
      <trkpt lat="46.08434" lon="4.50485">
        <ele>491.20001220703</ele>
        <time>2021-08-18T14:54:05.000Z</time>
      </trkpt>
      <trkpt lat="46.08438" lon="4.5049">
        <ele>491.79998779297</ele>
        <time>2021-08-18T14:54:06.000Z</time>
      </trkpt>
      <trkpt lat="46.08453" lon="4.50512">
        <ele>493.60000610352</ele>
        <time>2021-08-18T14:54:10.000Z</time>
      </trkpt>
      <trkpt lat="46.08457" lon="4.50518">
        <ele>493.79998779297</ele>
        <time>2021-08-18T14:54:11.000Z</time>
      </trkpt>
      <trkpt lat="46.0846" lon="4.50524">
        <ele>494</ele>
        <time>2021-08-18T14:54:12.000Z</time>
      </trkpt>
      <trkpt lat="46.08465" lon="4.50537">
        <ele>493.79998779297</ele>
        <time>2021-08-18T14:54:14.000Z</time>
      </trkpt>
      <trkpt lat="46.0847" lon="4.5055">
        <ele>493.20001220703</ele>
        <time>2021-08-18T14:54:16.000Z</time>
      </trkpt>
      <trkpt lat="46.08475" lon="4.50563">
        <ele>493.20001220703</ele>
        <time>2021-08-18T14:54:18.000Z</time>
      </trkpt>
      <trkpt lat="46.08483" lon="4.50583">
        <ele>493</ele>
        <time>2021-08-18T14:54:21.000Z</time>
      </trkpt>
      <trkpt lat="46.08488" lon="4.50605">
        <ele>493.20001220703</ele>
        <time>2021-08-18T14:54:24.000Z</time>
      </trkpt>
      <trkpt lat="46.0849" lon="4.50622">
        <ele>493</ele>
        <time>2021-08-18T14:54:26.000Z</time>
      </trkpt>
      <trkpt lat="46.0849" lon="4.50638">
        <ele>492.60000610352</ele>
        <time>2021-08-18T14:54:28.000Z</time>
      </trkpt>
      <trkpt lat="46.08489" lon="4.50655">
        <ele>492.79998779297</ele>
        <time>2021-08-18T14:54:30.000Z</time>
      </trkpt>
      <trkpt lat="46.08488" lon="4.50672">
        <ele>493</ele>
        <time>2021-08-18T14:54:32.000Z</time>
      </trkpt>
      <trkpt lat="46.08485" lon="4.50716">
        <ele>492.79998779297</ele>
        <time>2021-08-18T14:54:37.000Z</time>
      </trkpt>
      <trkpt lat="46.08482" lon="4.50741">
        <ele>491</ele>
        <time>2021-08-18T14:54:40.000Z</time>
      </trkpt>
      <trkpt lat="46.08481" lon="4.50757">
        <ele>489.39999389648</ele>
        <time>2021-08-18T14:54:42.000Z</time>
      </trkpt>
      <trkpt lat="46.08481" lon="4.50796">
        <ele>486.60000610352</ele>
        <time>2021-08-18T14:54:47.000Z</time>
      </trkpt>
      <trkpt lat="46.08486" lon="4.50855">
        <ele>491.60000610352</ele>
        <time>2021-08-18T14:54:54.000Z</time>
      </trkpt>
      <trkpt lat="46.08481" lon="4.50895">
        <ele>492.20001220703</ele>
        <time>2021-08-18T14:54:59.000Z</time>
      </trkpt>
      <trkpt lat="46.08479" lon="4.50903">
        <ele>491.79998779297</ele>
        <time>2021-08-18T14:55:00.000Z</time>
      </trkpt>
      <trkpt lat="46.08464" lon="4.50944">
        <ele>491.20001220703</ele>
        <time>2021-08-18T14:55:05.000Z</time>
      </trkpt>
      <trkpt lat="46.08459" lon="4.50961">
        <ele>491.79998779297</ele>
        <time>2021-08-18T14:55:07.000Z</time>
      </trkpt>
      <trkpt lat="46.08446" lon="4.51002">
        <ele>490</ele>
        <time>2021-08-18T14:55:12.000Z</time>
      </trkpt>
      <trkpt lat="46.08442" lon="4.51017">
        <ele>488.39999389648</ele>
        <time>2021-08-18T14:55:14.000Z</time>
      </trkpt>
      <trkpt lat="46.08431" lon="4.51059">
        <ele>485.60000610352</ele>
        <time>2021-08-18T14:55:19.000Z</time>
      </trkpt>
      <trkpt lat="46.08429" lon="4.51067">
        <ele>485.39999389648</ele>
        <time>2021-08-18T14:55:20.000Z</time>
      </trkpt>
      <trkpt lat="46.08426" lon="4.51084">
        <ele>484.60000610352</ele>
        <time>2021-08-18T14:55:22.000Z</time>
      </trkpt>
      <trkpt lat="46.08418" lon="4.51118">
        <ele>482</ele>
        <time>2021-08-18T14:55:26.000Z</time>
      </trkpt>
      <trkpt lat="46.08409" lon="4.51151">
        <ele>481.20001220703</ele>
        <time>2021-08-18T14:55:30.000Z</time>
      </trkpt>
      <trkpt lat="46.08401" lon="4.51166">
        <ele>480.20001220703</ele>
        <time>2021-08-18T14:55:32.000Z</time>
      </trkpt>
      <trkpt lat="46.08385" lon="4.51182">
        <ele>479</ele>
        <time>2021-08-18T14:55:35.000Z</time>
      </trkpt>
      <trkpt lat="46.0838" lon="4.51186">
        <ele>478.39999389648</ele>
        <time>2021-08-18T14:55:36.000Z</time>
      </trkpt>
      <trkpt lat="46.08374" lon="4.5119">
        <ele>477.60000610352</ele>
        <time>2021-08-18T14:55:37.000Z</time>
      </trkpt>
      <trkpt lat="46.08363" lon="4.51199">
        <ele>475.39999389648</ele>
        <time>2021-08-18T14:55:39.000Z</time>
      </trkpt>
      <trkpt lat="46.08359" lon="4.51204">
        <ele>474.60000610352</ele>
        <time>2021-08-18T14:55:40.000Z</time>
      </trkpt>
      <trkpt lat="46.08355" lon="4.5121">
        <ele>474.20001220703</ele>
        <time>2021-08-18T14:55:41.000Z</time>
      </trkpt>
      <trkpt lat="46.08345" lon="4.51231">
        <ele>474.39999389648</ele>
        <time>2021-08-18T14:55:44.000Z</time>
      </trkpt>
      <trkpt lat="46.08339" lon="4.51246">
        <ele>475.39999389648</ele>
        <time>2021-08-18T14:55:46.000Z</time>
      </trkpt>
      <trkpt lat="46.08331" lon="4.51278">
        <ele>477</ele>
        <time>2021-08-18T14:55:50.000Z</time>
      </trkpt>
      <trkpt lat="46.08329" lon="4.51303">
        <ele>479.79998779297</ele>
        <time>2021-08-18T14:55:53.000Z</time>
      </trkpt>
      <trkpt lat="46.08328" lon="4.51328">
        <ele>481.79998779297</ele>
        <time>2021-08-18T14:55:56.000Z</time>
      </trkpt>
      <trkpt lat="46.08326" lon="4.51363">
        <ele>482.60000610352</ele>
        <time>2021-08-18T14:56:00.000Z</time>
      </trkpt>
      <trkpt lat="46.08319" lon="4.51421">
        <ele>483.39999389648</ele>
        <time>2021-08-18T14:56:07.000Z</time>
      </trkpt>
      <trkpt lat="46.08314" lon="4.51445">
        <ele>483.20001220703</ele>
        <time>2021-08-18T14:56:10.000Z</time>
      </trkpt>
      <trkpt lat="46.08309" lon="4.51469">
        <ele>482</ele>
        <time>2021-08-18T14:56:13.000Z</time>
      </trkpt>
      <trkpt lat="46.08301" lon="4.51521">
        <ele>481.79998779297</ele>
        <time>2021-08-18T14:56:20.000Z</time>
      </trkpt>
      <trkpt lat="46.08291" lon="4.51585">
        <ele>483.39999389648</ele>
        <time>2021-08-18T14:56:28.000Z</time>
      </trkpt>
      <trkpt lat="46.0828" lon="4.51634">
        <ele>482</ele>
        <time>2021-08-18T14:56:34.000Z</time>
      </trkpt>
      <trkpt lat="46.08277" lon="4.51642">
        <ele>481.20001220703</ele>
        <time>2021-08-18T14:56:35.000Z</time>
      </trkpt>
      <trkpt lat="46.08252" lon="4.51709">
        <ele>480.20001220703</ele>
        <time>2021-08-18T14:56:44.000Z</time>
      </trkpt>
      <trkpt lat="46.08238" lon="4.51754">
        <ele>481</ele>
        <time>2021-08-18T14:56:50.000Z</time>
      </trkpt>
      <trkpt lat="46.08237" lon="4.51762">
        <ele>481</ele>
        <time>2021-08-18T14:56:51.000Z</time>
      </trkpt>
      <trkpt lat="46.08235" lon="4.51796">
        <ele>482.60000610352</ele>
        <time>2021-08-18T14:56:55.000Z</time>
      </trkpt>
      <trkpt lat="46.08235" lon="4.51813">
        <ele>482.60000610352</ele>
        <time>2021-08-18T14:56:57.000Z</time>
      </trkpt>
      <trkpt lat="46.0823" lon="4.51867">
        <ele>481</ele>
        <time>2021-08-18T14:57:04.000Z</time>
      </trkpt>
      <trkpt lat="46.08227" lon="4.51881">
        <ele>480</ele>
        <time>2021-08-18T14:57:06.000Z</time>
      </trkpt>
      <trkpt lat="46.08216" lon="4.51922">
        <ele>480</ele>
        <time>2021-08-18T14:57:12.000Z</time>
      </trkpt>
      <trkpt lat="46.08206" lon="4.51954">
        <ele>480.20001220703</ele>
        <time>2021-08-18T14:57:17.000Z</time>
      </trkpt>
      <trkpt lat="46.08204" lon="4.51961">
        <ele>480.39999389648</ele>
        <time>2021-08-18T14:57:18.000Z</time>
      </trkpt>
      <trkpt lat="46.0819" lon="4.52005">
        <ele>481</ele>
        <time>2021-08-18T14:57:25.000Z</time>
      </trkpt>
      <trkpt lat="46.08175" lon="4.52052">
        <ele>482.20001220703</ele>
        <time>2021-08-18T14:57:33.000Z</time>
      </trkpt>
      <trkpt lat="46.08164" lon="4.52088">
        <ele>485</ele>
        <time>2021-08-18T14:57:40.000Z</time>
      </trkpt>
      <trkpt lat="46.08153" lon="4.52112">
        <ele>486.20001220703</ele>
        <time>2021-08-18T14:57:45.000Z</time>
      </trkpt>
      <trkpt lat="46.08138" lon="4.5214">
        <ele>487.60000610352</ele>
        <time>2021-08-18T14:57:51.000Z</time>
      </trkpt>
      <trkpt lat="46.08136" lon="4.52144">
        <ele>488</ele>
        <time>2021-08-18T14:57:52.000Z</time>
      </trkpt>
      <trkpt lat="46.0813" lon="4.52152">
        <ele>489.20001220703</ele>
        <time>2021-08-18T14:57:54.000Z</time>
      </trkpt>
      <trkpt lat="46.08118" lon="4.52171">
        <ele>492.20001220703</ele>
        <time>2021-08-18T14:57:59.000Z</time>
      </trkpt>
      <trkpt lat="46.08114" lon="4.52173">
        <ele>493</ele>
        <time>2021-08-18T14:58:00.000Z</time>
      </trkpt>
      <trkpt lat="46.08108" lon="4.52178">
        <ele>494</ele>
        <time>2021-08-18T14:58:02.000Z</time>
      </trkpt>
      <trkpt lat="46.08095" lon="4.52185">
        <ele>494.60000610352</ele>
        <time>2021-08-18T14:58:06.000Z</time>
      </trkpt>
      <trkpt lat="46.08092" lon="4.52187">
        <ele>495</ele>
        <time>2021-08-18T14:58:07.000Z</time>
      </trkpt>
      <trkpt lat="46.08079" lon="4.52195">
        <ele>495</ele>
        <time>2021-08-18T14:58:11.000Z</time>
      </trkpt>
      <trkpt lat="46.08072" lon="4.52199">
        <ele>495.39999389648</ele>
        <time>2021-08-18T14:58:13.000Z</time>
      </trkpt>
      <trkpt lat="46.08065" lon="4.52203">
        <ele>496.60000610352</ele>
        <time>2021-08-18T14:58:15.000Z</time>
      </trkpt>
      <trkpt lat="46.0805" lon="4.52217">
        <ele>497.39999389648</ele>
        <time>2021-08-18T14:58:21.000Z</time>
      </trkpt>
      <trkpt lat="46.08048" lon="4.52219">
        <ele>497.20001220703</ele>
        <time>2021-08-18T14:58:22.000Z</time>
      </trkpt>
      <trkpt lat="46.08037" lon="4.52233">
        <ele>499.60000610352</ele>
        <time>2021-08-18T14:58:27.000Z</time>
      </trkpt>
      <trkpt lat="46.08029" lon="4.52251">
        <ele>500.20001220703</ele>
        <time>2021-08-18T14:58:32.000Z</time>
      </trkpt>
      <trkpt lat="46.08019" lon="4.52277">
        <ele>501.60000610352</ele>
        <time>2021-08-18T14:58:39.000Z</time>
      </trkpt>
      <trkpt lat="46.08015" lon="4.52289">
        <ele>502.39999389648</ele>
        <time>2021-08-18T14:58:42.000Z</time>
      </trkpt>
      <trkpt lat="46.08013" lon="4.52304">
        <ele>503.39999389648</ele>
        <time>2021-08-18T14:58:46.000Z</time>
      </trkpt>
      <trkpt lat="46.08012" lon="4.52308">
        <ele>503.79998779297</ele>
        <time>2021-08-18T14:58:47.000Z</time>
      </trkpt>
      <trkpt lat="46.08009" lon="4.52323">
        <ele>506.39999389648</ele>
        <time>2021-08-18T14:58:51.000Z</time>
      </trkpt>
      <trkpt lat="46.08007" lon="4.52331">
        <ele>506.60000610352</ele>
        <time>2021-08-18T14:58:53.000Z</time>
      </trkpt>
      <trkpt lat="46.08005" lon="4.52342">
        <ele>507.79998779297</ele>
        <time>2021-08-18T14:58:56.000Z</time>
      </trkpt>
      <trkpt lat="46.08002" lon="4.52352">
        <ele>509</ele>
        <time>2021-08-18T14:58:59.000Z</time>
      </trkpt>
      <trkpt lat="46.08" lon="4.5236">
        <ele>509.39999389648</ele>
        <time>2021-08-18T14:59:01.000Z</time>
      </trkpt>
      <trkpt lat="46.07997" lon="4.52367">
        <ele>509.60000610352</ele>
        <time>2021-08-18T14:59:03.000Z</time>
      </trkpt>
      <trkpt lat="46.07992" lon="4.52381">
        <ele>509.39999389648</ele>
        <time>2021-08-18T14:59:07.000Z</time>
      </trkpt>
      <trkpt lat="46.0799" lon="4.52388">
        <ele>509</ele>
        <time>2021-08-18T14:59:09.000Z</time>
      </trkpt>
      <trkpt lat="46.07988" lon="4.52395">
        <ele>508.39999389648</ele>
        <time>2021-08-18T14:59:11.000Z</time>
      </trkpt>
      <trkpt lat="46.0798" lon="4.52412">
        <ele>508.20001220703</ele>
        <time>2021-08-18T14:59:16.000Z</time>
      </trkpt>
      <trkpt lat="46.07979" lon="4.52415">
        <ele>508</ele>
        <time>2021-08-18T14:59:17.000Z</time>
      </trkpt>
      <trkpt lat="46.07972" lon="4.52424">
        <ele>508.39999389648</ele>
        <time>2021-08-18T14:59:21.000Z</time>
      </trkpt>
      <trkpt lat="46.07959" lon="4.52439">
        <ele>509.60000610352</ele>
        <time>2021-08-18T14:59:29.000Z</time>
      </trkpt>
      <trkpt lat="46.07949" lon="4.52461">
        <ele>508.20001220703</ele>
        <time>2021-08-18T14:59:36.000Z</time>
      </trkpt>
      <trkpt lat="46.07944" lon="4.52481">
        <ele>507.20001220703</ele>
        <time>2021-08-18T14:59:41.000Z</time>
      </trkpt>
      <trkpt lat="46.07944" lon="4.52485">
        <ele>506.79998779297</ele>
        <time>2021-08-18T14:59:42.000Z</time>
      </trkpt>
      <trkpt lat="46.07943" lon="4.5249">
        <ele>506.39999389648</ele>
        <time>2021-08-18T14:59:43.000Z</time>
      </trkpt>
      <trkpt lat="46.07942" lon="4.52498">
        <ele>505.60000610352</ele>
        <time>2021-08-18T14:59:45.000Z</time>
      </trkpt>
      <trkpt lat="46.07942" lon="4.52507">
        <ele>505.20001220703</ele>
        <time>2021-08-18T14:59:47.000Z</time>
      </trkpt>
      <trkpt lat="46.07941" lon="4.52515">
        <ele>504.79998779297</ele>
        <time>2021-08-18T14:59:49.000Z</time>
      </trkpt>
      <trkpt lat="46.0794" lon="4.52523">
        <ele>504.60000610352</ele>
        <time>2021-08-18T14:59:51.000Z</time>
      </trkpt>
      <trkpt lat="46.07939" lon="4.52527">
        <ele>504.60000610352</ele>
        <time>2021-08-18T14:59:52.000Z</time>
      </trkpt>
      <trkpt lat="46.07935" lon="4.52541">
        <ele>504.39999389648</ele>
        <time>2021-08-18T14:59:56.000Z</time>
      </trkpt>
      <trkpt lat="46.07932" lon="4.52546">
        <ele>504.60000610352</ele>
        <time>2021-08-18T14:59:58.000Z</time>
      </trkpt>
      <trkpt lat="46.07915" lon="4.52565">
        <ele>508.20001220703</ele>
        <time>2021-08-18T15:00:06.000Z</time>
      </trkpt>
      <trkpt lat="46.07891" lon="4.52583">
        <ele>512</ele>
        <time>2021-08-18T15:00:16.000Z</time>
      </trkpt>
      <trkpt lat="46.07875" lon="4.52597">
        <ele>515.20001220703</ele>
        <time>2021-08-18T15:00:23.000Z</time>
      </trkpt>
      <trkpt lat="46.07868" lon="4.52603">
        <ele>516.59997558594</ele>
        <time>2021-08-18T15:00:26.000Z</time>
      </trkpt>
      <trkpt lat="46.07866" lon="4.52605">
        <ele>516.79998779297</ele>
        <time>2021-08-18T15:00:27.000Z</time>
      </trkpt>
      <trkpt lat="46.0785" lon="4.52618">
        <ele>518.79998779297</ele>
        <time>2021-08-18T15:00:34.000Z</time>
      </trkpt>
      <trkpt lat="46.07846" lon="4.52622">
        <ele>520</ele>
        <time>2021-08-18T15:00:36.000Z</time>
      </trkpt>
      <trkpt lat="46.07839" lon="4.52629">
        <ele>521.59997558594</ele>
        <time>2021-08-18T15:00:40.000Z</time>
      </trkpt>
      <trkpt lat="46.07824" lon="4.52641">
        <ele>524.40002441406</ele>
        <time>2021-08-18T15:00:47.000Z</time>
      </trkpt>
      <trkpt lat="46.07813" lon="4.5265">
        <ele>527.59997558594</ele>
        <time>2021-08-18T15:00:53.000Z</time>
      </trkpt>
      <trkpt lat="46.07805" lon="4.52659">
        <ele>529.40002441406</ele>
        <time>2021-08-18T15:00:58.000Z</time>
      </trkpt>
      <trkpt lat="46.07792" lon="4.52674">
        <ele>530.40002441406</ele>
        <time>2021-08-18T15:01:05.000Z</time>
      </trkpt>
      <trkpt lat="46.07784" lon="4.52686">
        <ele>531</ele>
        <time>2021-08-18T15:01:10.000Z</time>
      </trkpt>
      <trkpt lat="46.07782" lon="4.52688">
        <ele>530.79998779297</ele>
        <time>2021-08-18T15:01:11.000Z</time>
      </trkpt>
      <trkpt lat="46.07773" lon="4.52703">
        <ele>531.79998779297</ele>
        <time>2021-08-18T15:01:16.000Z</time>
      </trkpt>
      <trkpt lat="46.07771" lon="4.52707">
        <ele>531.40002441406</ele>
        <time>2021-08-18T15:01:17.000Z</time>
      </trkpt>
      <trkpt lat="46.07765" lon="4.52716">
        <ele>530.59997558594</ele>
        <time>2021-08-18T15:01:20.000Z</time>
      </trkpt>
      <trkpt lat="46.07761" lon="4.52726">
        <ele>530.79998779297</ele>
        <time>2021-08-18T15:01:23.000Z</time>
      </trkpt>
      <trkpt lat="46.07757" lon="4.52733">
        <ele>531.79998779297</ele>
        <time>2021-08-18T15:01:25.000Z</time>
      </trkpt>
      <trkpt lat="46.07752" lon="4.52743">
        <ele>532.40002441406</ele>
        <time>2021-08-18T15:01:28.000Z</time>
      </trkpt>
      <trkpt lat="46.0775" lon="4.52746">
        <ele>531.79998779297</ele>
        <time>2021-08-18T15:01:29.000Z</time>
      </trkpt>
      <trkpt lat="46.07748" lon="4.5275">
        <ele>531.59997558594</ele>
        <time>2021-08-18T15:01:30.000Z</time>
      </trkpt>
      <trkpt lat="46.07739" lon="4.52767">
        <ele>531.20001220703</ele>
        <time>2021-08-18T15:01:36.000Z</time>
      </trkpt>
      <trkpt lat="46.07728" lon="4.52782">
        <ele>534.40002441406</ele>
        <time>2021-08-18T15:01:42.000Z</time>
      </trkpt>
      <trkpt lat="46.07726" lon="4.52785">
        <ele>535.20001220703</ele>
        <time>2021-08-18T15:01:43.000Z</time>
      </trkpt>
      <trkpt lat="46.07722" lon="4.52793">
        <ele>536.59997558594</ele>
        <time>2021-08-18T15:01:46.000Z</time>
      </trkpt>
      <trkpt lat="46.07711" lon="4.52814">
        <ele>535.20001220703</ele>
        <time>2021-08-18T15:01:53.000Z</time>
      </trkpt>
      <trkpt lat="46.07701" lon="4.52831">
        <ele>538.79998779297</ele>
        <time>2021-08-18T15:01:59.000Z</time>
      </trkpt>
      <trkpt lat="46.077" lon="4.52834">
        <ele>538.59997558594</ele>
        <time>2021-08-18T15:02:00.000Z</time>
      </trkpt>
      <trkpt lat="46.07694" lon="4.5285">
        <ele>540</ele>
        <time>2021-08-18T15:02:06.000Z</time>
      </trkpt>
      <trkpt lat="46.07693" lon="4.52853">
        <ele>539.79998779297</ele>
        <time>2021-08-18T15:02:07.000Z</time>
      </trkpt>
      <trkpt lat="46.0769" lon="4.52858">
        <ele>539.59997558594</ele>
        <time>2021-08-18T15:02:09.000Z</time>
      </trkpt>
      <trkpt lat="46.07684" lon="4.52868">
        <ele>540</ele>
        <time>2021-08-18T15:02:13.000Z</time>
      </trkpt>
      <trkpt lat="46.07682" lon="4.52871">
        <ele>539.79998779297</ele>
        <time>2021-08-18T15:02:14.000Z</time>
      </trkpt>
      <trkpt lat="46.07677" lon="4.52876">
        <ele>541</ele>
        <time>2021-08-18T15:02:17.000Z</time>
      </trkpt>
      <trkpt lat="46.07674" lon="4.52879">
        <ele>541.59997558594</ele>
        <time>2021-08-18T15:02:19.000Z</time>
      </trkpt>
      <trkpt lat="46.07673" lon="4.5288">
        <ele>541.59997558594</ele>
        <time>2021-08-18T15:02:20.000Z</time>
      </trkpt>
      <trkpt lat="46.07673" lon="4.52882">
        <ele>541.40002441406</ele>
        <time>2021-08-18T15:02:21.000Z</time>
      </trkpt>
      <trkpt lat="46.07671" lon="4.52884">
        <ele>541.20001220703</ele>
        <time>2021-08-18T15:02:23.000Z</time>
      </trkpt>
      <trkpt lat="46.07668" lon="4.52887">
        <ele>540.59997558594</ele>
        <time>2021-08-18T15:02:25.000Z</time>
      </trkpt>
      <trkpt lat="46.07666" lon="4.52889">
        <ele>540.40002441406</ele>
        <time>2021-08-18T15:02:27.000Z</time>
      </trkpt>
      <trkpt lat="46.07664" lon="4.52893">
        <ele>540.79998779297</ele>
        <time>2021-08-18T15:02:30.000Z</time>
      </trkpt>
      <trkpt lat="46.07663" lon="4.52898">
        <ele>541.59997558594</ele>
        <time>2021-08-18T15:02:33.000Z</time>
      </trkpt>
      <trkpt lat="46.07661" lon="4.52899">
        <ele>541.40002441406</ele>
        <time>2021-08-18T15:02:34.000Z</time>
      </trkpt>
      <trkpt lat="46.0766" lon="4.52901">
        <ele>541.40002441406</ele>
        <time>2021-08-18T15:02:35.000Z</time>
      </trkpt>
      <trkpt lat="46.0765" lon="4.5292">
        <ele>542.20001220703</ele>
        <time>2021-08-18T15:02:39.000Z</time>
      </trkpt>
      <trkpt lat="46.07647" lon="4.52926">
        <ele>543.40002441406</ele>
        <time>2021-08-18T15:02:40.000Z</time>
      </trkpt>
      <trkpt lat="46.07644" lon="4.52932">
        <ele>544.40002441406</ele>
        <time>2021-08-18T15:02:41.000Z</time>
      </trkpt>
      <trkpt lat="46.07642" lon="4.52942">
        <ele>545.40002441406</ele>
        <time>2021-08-18T15:02:43.000Z</time>
      </trkpt>
      <trkpt lat="46.07641" lon="4.52946">
        <ele>545.79998779297</ele>
        <time>2021-08-18T15:02:44.000Z</time>
      </trkpt>
      <trkpt lat="46.07641" lon="4.5295">
        <ele>547.20001220703</ele>
        <time>2021-08-18T15:02:45.000Z</time>
      </trkpt>
      <trkpt lat="46.07642" lon="4.52953">
        <ele>548.40002441406</ele>
        <time>2021-08-18T15:02:46.000Z</time>
      </trkpt>
      <trkpt lat="46.07643" lon="4.52956">
        <ele>549.20001220703</ele>
        <time>2021-08-18T15:02:47.000Z</time>
      </trkpt>
      <trkpt lat="46.07645" lon="4.52958">
        <ele>549.79998779297</ele>
        <time>2021-08-18T15:02:48.000Z</time>
      </trkpt>
      <trkpt lat="46.07648" lon="4.5296">
        <ele>550</ele>
        <time>2021-08-18T15:02:50.000Z</time>
      </trkpt>
      <trkpt lat="46.0765" lon="4.52959">
        <ele>549.40002441406</ele>
        <time>2021-08-18T15:02:51.000Z</time>
      </trkpt>
      <trkpt lat="46.07653" lon="4.52959">
        <ele>549</ele>
        <time>2021-08-18T15:02:52.000Z</time>
      </trkpt>
      <trkpt lat="46.07658" lon="4.52957">
        <ele>549.20001220703</ele>
        <time>2021-08-18T15:02:54.000Z</time>
      </trkpt>
      <trkpt lat="46.07662" lon="4.52955">
        <ele>549.59997558594</ele>
        <time>2021-08-18T15:02:56.000Z</time>
      </trkpt>
      <trkpt lat="46.07664" lon="4.52953">
        <ele>549.79998779297</ele>
        <time>2021-08-18T15:02:58.000Z</time>
      </trkpt>
      <trkpt lat="46.07666" lon="4.52952">
        <ele>550</ele>
        <time>2021-08-18T15:02:59.000Z</time>
      </trkpt>
      <trkpt lat="46.07668" lon="4.52951">
        <ele>550.20001220703</ele>
        <time>2021-08-18T15:03:00.000Z</time>
      </trkpt>
      <trkpt lat="46.07673" lon="4.52948">
        <ele>550.40002441406</ele>
        <time>2021-08-18T15:03:02.000Z</time>
      </trkpt>
      <trkpt lat="46.07678" lon="4.52946">
        <ele>550.79998779297</ele>
        <time>2021-08-18T15:03:04.000Z</time>
      </trkpt>
      <trkpt lat="46.07683" lon="4.52943">
        <ele>551.20001220703</ele>
        <time>2021-08-18T15:03:06.000Z</time>
      </trkpt>
      <trkpt lat="46.07685" lon="4.52942">
        <ele>551.59997558594</ele>
        <time>2021-08-18T15:03:07.000Z</time>
      </trkpt>
      <trkpt lat="46.07687" lon="4.5294">
        <ele>551.79998779297</ele>
        <time>2021-08-18T15:03:08.000Z</time>
      </trkpt>
      <trkpt lat="46.07694" lon="4.52935">
        <ele>552.59997558594</ele>
        <time>2021-08-18T15:03:11.000Z</time>
      </trkpt>
      <trkpt lat="46.07702" lon="4.5293">
        <ele>553.59997558594</ele>
        <time>2021-08-18T15:03:15.000Z</time>
      </trkpt>
      <trkpt lat="46.0771" lon="4.52924">
        <ele>554.20001220703</ele>
        <time>2021-08-18T15:03:19.000Z</time>
      </trkpt>
      <trkpt lat="46.07718" lon="4.52918">
        <ele>555.40002441406</ele>
        <time>2021-08-18T15:03:23.000Z</time>
      </trkpt>
      <trkpt lat="46.07727" lon="4.52913">
        <ele>557.20001220703</ele>
        <time>2021-08-18T15:03:27.000Z</time>
      </trkpt>
      <trkpt lat="46.07735" lon="4.52907">
        <ele>557.79998779297</ele>
        <time>2021-08-18T15:03:31.000Z</time>
      </trkpt>
      <trkpt lat="46.07743" lon="4.52902">
        <ele>558.40002441406</ele>
        <time>2021-08-18T15:03:35.000Z</time>
      </trkpt>
      <trkpt lat="46.07753" lon="4.52895">
        <ele>560.40002441406</ele>
        <time>2021-08-18T15:03:40.000Z</time>
      </trkpt>
      <trkpt lat="46.07769" lon="4.52883">
        <ele>562.59997558594</ele>
        <time>2021-08-18T15:03:48.000Z</time>
      </trkpt>
      <trkpt lat="46.07782" lon="4.52875">
        <ele>562.20001220703</ele>
        <time>2021-08-18T15:03:55.000Z</time>
      </trkpt>
      <trkpt lat="46.07796" lon="4.52861">
        <ele>560.40002441406</ele>
        <time>2021-08-18T15:04:02.000Z</time>
      </trkpt>
      <trkpt lat="46.0781" lon="4.52846">
        <ele>561</ele>
        <time>2021-08-18T15:04:09.000Z</time>
      </trkpt>
      <trkpt lat="46.07819" lon="4.52838">
        <ele>562.20001220703</ele>
        <time>2021-08-18T15:04:14.000Z</time>
      </trkpt>
      <trkpt lat="46.07823" lon="4.52835">
        <ele>562.40002441406</ele>
        <time>2021-08-18T15:04:16.000Z</time>
      </trkpt>
      <trkpt lat="46.07827" lon="4.52832">
        <ele>562.59997558594</ele>
        <time>2021-08-18T15:04:18.000Z</time>
      </trkpt>
      <trkpt lat="46.07837" lon="4.52827">
        <ele>563.20001220703</ele>
        <time>2021-08-18T15:04:22.000Z</time>
      </trkpt>
      <trkpt lat="46.07841" lon="4.52825">
        <ele>563.59997558594</ele>
        <time>2021-08-18T15:04:24.000Z</time>
      </trkpt>
      <trkpt lat="46.07845" lon="4.52823">
        <ele>564.20001220703</ele>
        <time>2021-08-18T15:04:26.000Z</time>
      </trkpt>
      <trkpt lat="46.07855" lon="4.5282">
        <ele>563.79998779297</ele>
        <time>2021-08-18T15:04:30.000Z</time>
      </trkpt>
      <trkpt lat="46.07862" lon="4.52818">
        <ele>563.20001220703</ele>
        <time>2021-08-18T15:04:33.000Z</time>
      </trkpt>
      <trkpt lat="46.07864" lon="4.52817">
        <ele>563</ele>
        <time>2021-08-18T15:04:34.000Z</time>
      </trkpt>
      <trkpt lat="46.07873" lon="4.52814">
        <ele>563</ele>
        <time>2021-08-18T15:04:38.000Z</time>
      </trkpt>
      <trkpt lat="46.07881" lon="4.52814">
        <ele>562.40002441406</ele>
        <time>2021-08-18T15:04:41.000Z</time>
      </trkpt>
      <trkpt lat="46.07886" lon="4.52814">
        <ele>561.59997558594</ele>
        <time>2021-08-18T15:04:43.000Z</time>
      </trkpt>
      <trkpt lat="46.0789" lon="4.52815">
        <ele>561.40002441406</ele>
        <time>2021-08-18T15:04:45.000Z</time>
      </trkpt>
      <trkpt lat="46.07897" lon="4.52816">
        <ele>561.40002441406</ele>
        <time>2021-08-18T15:04:48.000Z</time>
      </trkpt>
      <trkpt lat="46.07901" lon="4.52819">
        <ele>561.59997558594</ele>
        <time>2021-08-18T15:04:50.000Z</time>
      </trkpt>
      <trkpt lat="46.07908" lon="4.52823">
        <ele>561</ele>
        <time>2021-08-18T15:04:53.000Z</time>
      </trkpt>
      <trkpt lat="46.0791" lon="4.52825">
        <ele>560.79998779297</ele>
        <time>2021-08-18T15:04:54.000Z</time>
      </trkpt>
      <trkpt lat="46.07912" lon="4.52827">
        <ele>560.40002441406</ele>
        <time>2021-08-18T15:04:55.000Z</time>
      </trkpt>
      <trkpt lat="46.0792" lon="4.52841">
        <ele>559.40002441406</ele>
        <time>2021-08-18T15:05:00.000Z</time>
      </trkpt>
      <trkpt lat="46.07921" lon="4.52844">
        <ele>559.40002441406</ele>
        <time>2021-08-18T15:05:01.000Z</time>
      </trkpt>
      <trkpt lat="46.07923" lon="4.5285">
        <ele>559.20001220703</ele>
        <time>2021-08-18T15:05:03.000Z</time>
      </trkpt>
      <trkpt lat="46.07922" lon="4.52861">
        <ele>561</ele>
        <time>2021-08-18T15:05:06.000Z</time>
      </trkpt>
      <trkpt lat="46.07922" lon="4.52865">
        <ele>561.59997558594</ele>
        <time>2021-08-18T15:05:07.000Z</time>
      </trkpt>
      <trkpt lat="46.07921" lon="4.52872">
        <ele>562.59997558594</ele>
        <time>2021-08-18T15:05:09.000Z</time>
      </trkpt>
      <trkpt lat="46.07917" lon="4.52891">
        <ele>566.20001220703</ele>
        <time>2021-08-18T15:05:15.000Z</time>
      </trkpt>
      <trkpt lat="46.07916" lon="4.52895">
        <ele>566.59997558594</ele>
        <time>2021-08-18T15:05:16.000Z</time>
      </trkpt>
      <trkpt lat="46.07914" lon="4.529">
        <ele>567.40002441406</ele>
        <time>2021-08-18T15:05:18.000Z</time>
      </trkpt>
      <trkpt lat="46.0791" lon="4.52916">
        <ele>570</ele>
        <time>2021-08-18T15:05:23.000Z</time>
      </trkpt>
      <trkpt lat="46.07908" lon="4.52922">
        <ele>570.59997558594</ele>
        <time>2021-08-18T15:05:25.000Z</time>
      </trkpt>
      <trkpt lat="46.07902" lon="4.52945">
        <ele>572.40002441406</ele>
        <time>2021-08-18T15:05:32.000Z</time>
      </trkpt>
      <trkpt lat="46.07895" lon="4.52973">
        <ele>574.79998779297</ele>
        <time>2021-08-18T15:05:40.000Z</time>
      </trkpt>
      <trkpt lat="46.07893" lon="4.52983">
        <ele>577.20001220703</ele>
        <time>2021-08-18T15:05:43.000Z</time>
      </trkpt>
      <trkpt lat="46.07889" lon="4.53004">
        <ele>580.59997558594</ele>
        <time>2021-08-18T15:05:49.000Z</time>
      </trkpt>
      <trkpt lat="46.07886" lon="4.5302">
        <ele>582.59997558594</ele>
        <time>2021-08-18T15:05:54.000Z</time>
      </trkpt>
      <trkpt lat="46.07883" lon="4.5303">
        <ele>583.20001220703</ele>
        <time>2021-08-18T15:05:57.000Z</time>
      </trkpt>
      <trkpt lat="46.0788" lon="4.53046">
        <ele>584</ele>
        <time>2021-08-18T15:06:02.000Z</time>
      </trkpt>
      <trkpt lat="46.07878" lon="4.53062">
        <ele>584.79998779297</ele>
        <time>2021-08-18T15:06:07.000Z</time>
      </trkpt>
      <trkpt lat="46.07872" lon="4.53085">
        <ele>586.59997558594</ele>
        <time>2021-08-18T15:06:14.000Z</time>
      </trkpt>
      <trkpt lat="46.0787" lon="4.53092">
        <ele>587.20001220703</ele>
        <time>2021-08-18T15:06:16.000Z</time>
      </trkpt>
      <trkpt lat="46.07867" lon="4.53121">
        <ele>589.59997558594</ele>
        <time>2021-08-18T15:06:24.000Z</time>
      </trkpt>
      <trkpt lat="46.07867" lon="4.53139">
        <ele>589.79998779297</ele>
        <time>2021-08-18T15:06:29.000Z</time>
      </trkpt>
      <trkpt lat="46.07869" lon="4.53148">
        <ele>589.59997558594</ele>
        <time>2021-08-18T15:06:32.000Z</time>
      </trkpt>
      <trkpt lat="46.07871" lon="4.53158">
        <ele>589.20001220703</ele>
        <time>2021-08-18T15:06:35.000Z</time>
      </trkpt>
      <trkpt lat="46.07876" lon="4.53173">
        <ele>588</ele>
        <time>2021-08-18T15:06:40.000Z</time>
      </trkpt>
      <trkpt lat="46.07877" lon="4.53176">
        <ele>587.20001220703</ele>
        <time>2021-08-18T15:06:41.000Z</time>
      </trkpt>
      <trkpt lat="46.0788" lon="4.53187">
        <ele>585.40002441406</ele>
        <time>2021-08-18T15:06:45.000Z</time>
      </trkpt>
      <trkpt lat="46.07881" lon="4.5319">
        <ele>585</ele>
        <time>2021-08-18T15:06:46.000Z</time>
      </trkpt>
      <trkpt lat="46.07882" lon="4.53193">
        <ele>584.59997558594</ele>
        <time>2021-08-18T15:06:47.000Z</time>
      </trkpt>
      <trkpt lat="46.07882" lon="4.532">
        <ele>584.59997558594</ele>
        <time>2021-08-18T15:06:50.000Z</time>
      </trkpt>
      <trkpt lat="46.07884" lon="4.53205">
        <ele>584</ele>
        <time>2021-08-18T15:06:52.000Z</time>
      </trkpt>
      <trkpt lat="46.07886" lon="4.53209">
        <ele>583.40002441406</ele>
        <time>2021-08-18T15:06:53.000Z</time>
      </trkpt>
      <trkpt lat="46.07888" lon="4.53218">
        <ele>582.59997558594</ele>
        <time>2021-08-18T15:06:56.000Z</time>
      </trkpt>
      <trkpt lat="46.0789" lon="4.53224">
        <ele>582.40002441406</ele>
        <time>2021-08-18T15:06:58.000Z</time>
      </trkpt>
      <trkpt lat="46.07891" lon="4.53227">
        <ele>582.59997558594</ele>
        <time>2021-08-18T15:06:59.000Z</time>
      </trkpt>
      <trkpt lat="46.07892" lon="4.53231">
        <ele>582.59997558594</ele>
        <time>2021-08-18T15:07:00.000Z</time>
      </trkpt>
      <trkpt lat="46.07894" lon="4.53237">
        <ele>583.20001220703</ele>
        <time>2021-08-18T15:07:02.000Z</time>
      </trkpt>
      <trkpt lat="46.07895" lon="4.53247">
        <ele>584</ele>
        <time>2021-08-18T15:07:05.000Z</time>
      </trkpt>
      <trkpt lat="46.07896" lon="4.53251">
        <ele>584.20001220703</ele>
        <time>2021-08-18T15:07:06.000Z</time>
      </trkpt>
      <trkpt lat="46.07899" lon="4.53269">
        <ele>584.79998779297</ele>
        <time>2021-08-18T15:07:12.000Z</time>
      </trkpt>
      <trkpt lat="46.07899" lon="4.53272">
        <ele>585</ele>
        <time>2021-08-18T15:07:13.000Z</time>
      </trkpt>
      <trkpt lat="46.07899" lon="4.53279">
        <ele>586.40002441406</ele>
        <time>2021-08-18T15:07:15.000Z</time>
      </trkpt>
      <trkpt lat="46.07899" lon="4.53286">
        <ele>586.59997558594</ele>
        <time>2021-08-18T15:07:17.000Z</time>
      </trkpt>
      <trkpt lat="46.079" lon="4.5329">
        <ele>586.59997558594</ele>
        <time>2021-08-18T15:07:18.000Z</time>
      </trkpt>
      <trkpt lat="46.07899" lon="4.53313">
        <ele>588</ele>
        <time>2021-08-18T15:07:25.000Z</time>
      </trkpt>
      <trkpt lat="46.07898" lon="4.5333">
        <ele>588.20001220703</ele>
        <time>2021-08-18T15:07:31.000Z</time>
      </trkpt>
      <trkpt lat="46.07895" lon="4.53341">
        <ele>589.20001220703</ele>
        <time>2021-08-18T15:07:35.000Z</time>
      </trkpt>
      <trkpt lat="46.07894" lon="4.53345">
        <ele>589.59997558594</ele>
        <time>2021-08-18T15:07:36.000Z</time>
      </trkpt>
      <trkpt lat="46.07892" lon="4.53348">
        <ele>590.40002441406</ele>
        <time>2021-08-18T15:07:37.000Z</time>
      </trkpt>
      <trkpt lat="46.0789" lon="4.53358">
        <ele>591</ele>
        <time>2021-08-18T15:07:40.000Z</time>
      </trkpt>
      <trkpt lat="46.07888" lon="4.53364">
        <ele>592.20001220703</ele>
        <time>2021-08-18T15:07:42.000Z</time>
      </trkpt>
      <trkpt lat="46.07887" lon="4.53367">
        <ele>592.59997558594</ele>
        <time>2021-08-18T15:07:43.000Z</time>
      </trkpt>
      <trkpt lat="46.07886" lon="4.5337">
        <ele>593</ele>
        <time>2021-08-18T15:07:44.000Z</time>
      </trkpt>
      <trkpt lat="46.07879" lon="4.53386">
        <ele>594.40002441406</ele>
        <time>2021-08-18T15:07:50.000Z</time>
      </trkpt>
      <trkpt lat="46.07879" lon="4.53388">
        <ele>594.59997558594</ele>
        <time>2021-08-18T15:07:51.000Z</time>
      </trkpt>
      <trkpt lat="46.07863" lon="4.53408">
        <ele>598.59997558594</ele>
        <time>2021-08-18T15:08:01.000Z</time>
      </trkpt>
      <trkpt lat="46.07862" lon="4.5341">
        <ele>599.20001220703</ele>
        <time>2021-08-18T15:08:02.000Z</time>
      </trkpt>
      <trkpt lat="46.07849" lon="4.53424">
        <ele>603.40002441406</ele>
        <time>2021-08-18T15:08:09.000Z</time>
      </trkpt>
      <trkpt lat="46.07848" lon="4.53426">
        <ele>603.40002441406</ele>
        <time>2021-08-18T15:08:10.000Z</time>
      </trkpt>
      <trkpt lat="46.07844" lon="4.53431">
        <ele>604</ele>
        <time>2021-08-18T15:08:12.000Z</time>
      </trkpt>
      <trkpt lat="46.07836" lon="4.53439">
        <ele>605.40002441406</ele>
        <time>2021-08-18T15:08:16.000Z</time>
      </trkpt>
      <trkpt lat="46.0782" lon="4.53453">
        <ele>607.20001220703</ele>
        <time>2021-08-18T15:08:24.000Z</time>
      </trkpt>
      <trkpt lat="46.07806" lon="4.5346">
        <ele>608.59997558594</ele>
        <time>2021-08-18T15:08:30.000Z</time>
      </trkpt>
      <trkpt lat="46.07793" lon="4.53466">
        <ele>610.40002441406</ele>
        <time>2021-08-18T15:08:36.000Z</time>
      </trkpt>
      <trkpt lat="46.07788" lon="4.53467">
        <ele>611.40002441406</ele>
        <time>2021-08-18T15:08:39.000Z</time>
      </trkpt>
      <trkpt lat="46.07784" lon="4.53468">
        <ele>612.20001220703</ele>
        <time>2021-08-18T15:08:41.000Z</time>
      </trkpt>
      <trkpt lat="46.07782" lon="4.53468">
        <ele>612.59997558594</ele>
        <time>2021-08-18T15:08:42.000Z</time>
      </trkpt>
      <trkpt lat="46.07774" lon="4.5347">
        <ele>613.79998779297</ele>
        <time>2021-08-18T15:08:46.000Z</time>
      </trkpt>
      <trkpt lat="46.07769" lon="4.53473">
        <ele>614.40002441406</ele>
        <time>2021-08-18T15:08:49.000Z</time>
      </trkpt>
      <trkpt lat="46.07765" lon="4.53475">
        <ele>615.20001220703</ele>
        <time>2021-08-18T15:08:51.000Z</time>
      </trkpt>
      <trkpt lat="46.07761" lon="4.53479">
        <ele>616</ele>
        <time>2021-08-18T15:08:54.000Z</time>
      </trkpt>
      <trkpt lat="46.07761" lon="4.53481">
        <ele>616</ele>
        <time>2021-08-18T15:08:55.000Z</time>
      </trkpt>
      <trkpt lat="46.07747" lon="4.535">
        <ele>617.79998779297</ele>
        <time>2021-08-18T15:09:02.000Z</time>
      </trkpt>
      <trkpt lat="46.07744" lon="4.53506">
        <ele>618.20001220703</ele>
        <time>2021-08-18T15:09:04.000Z</time>
      </trkpt>
      <trkpt lat="46.07738" lon="4.53517">
        <ele>618.79998779297</ele>
        <time>2021-08-18T15:09:07.000Z</time>
      </trkpt>
      <trkpt lat="46.07735" lon="4.53522">
        <ele>619.59997558594</ele>
        <time>2021-08-18T15:09:08.000Z</time>
      </trkpt>
      <trkpt lat="46.07733" lon="4.53526">
        <ele>620</ele>
        <time>2021-08-18T15:09:09.000Z</time>
      </trkpt>
      <trkpt lat="46.0773" lon="4.53537">
        <ele>620.79998779297</ele>
        <time>2021-08-18T15:09:12.000Z</time>
      </trkpt>
      <trkpt lat="46.07729" lon="4.5354">
        <ele>621</ele>
        <time>2021-08-18T15:09:13.000Z</time>
      </trkpt>
      <trkpt lat="46.07726" lon="4.53559">
        <ele>621.59997558594</ele>
        <time>2021-08-18T15:09:19.000Z</time>
      </trkpt>
      <trkpt lat="46.07725" lon="4.53577">
        <ele>622.40002441406</ele>
        <time>2021-08-18T15:09:24.000Z</time>
      </trkpt>
      <trkpt lat="46.07725" lon="4.53585">
        <ele>622.79998779297</ele>
        <time>2021-08-18T15:09:26.000Z</time>
      </trkpt>
      <trkpt lat="46.07725" lon="4.53589">
        <ele>622.79998779297</ele>
        <time>2021-08-18T15:09:27.000Z</time>
      </trkpt>
      <trkpt lat="46.07725" lon="4.53593">
        <ele>623.20001220703</ele>
        <time>2021-08-18T15:09:28.000Z</time>
      </trkpt>
      <trkpt lat="46.07725" lon="4.53598">
        <ele>623.20001220703</ele>
        <time>2021-08-18T15:09:29.000Z</time>
      </trkpt>
      <trkpt lat="46.07726" lon="4.53605">
        <ele>623.20001220703</ele>
        <time>2021-08-18T15:09:31.000Z</time>
      </trkpt>
      <trkpt lat="46.07726" lon="4.53608">
        <ele>623.20001220703</ele>
        <time>2021-08-18T15:09:32.000Z</time>
      </trkpt>
      <trkpt lat="46.07727" lon="4.53611">
        <ele>623</ele>
        <time>2021-08-18T15:09:33.000Z</time>
      </trkpt>
      <trkpt lat="46.07729" lon="4.53618">
        <ele>623</ele>
        <time>2021-08-18T15:09:35.000Z</time>
      </trkpt>
      <trkpt lat="46.07731" lon="4.53627">
        <ele>622.79998779297</ele>
        <time>2021-08-18T15:09:38.000Z</time>
      </trkpt>
      <trkpt lat="46.07732" lon="4.53633">
        <ele>622.79998779297</ele>
        <time>2021-08-18T15:09:40.000Z</time>
      </trkpt>
      <trkpt lat="46.07734" lon="4.5364">
        <ele>622.59997558594</ele>
        <time>2021-08-18T15:09:42.000Z</time>
      </trkpt>
      <trkpt lat="46.07734" lon="4.53643">
        <ele>622.79998779297</ele>
        <time>2021-08-18T15:09:43.000Z</time>
      </trkpt>
      <trkpt lat="46.07734" lon="4.53647">
        <ele>623</ele>
        <time>2021-08-18T15:09:44.000Z</time>
      </trkpt>
      <trkpt lat="46.07735" lon="4.53653">
        <ele>623</ele>
        <time>2021-08-18T15:09:46.000Z</time>
      </trkpt>
      <trkpt lat="46.07739" lon="4.53665">
        <ele>622.79998779297</ele>
        <time>2021-08-18T15:09:50.000Z</time>
      </trkpt>
      <trkpt lat="46.07741" lon="4.53682">
        <ele>622.40002441406</ele>
        <time>2021-08-18T15:09:55.000Z</time>
      </trkpt>
      <trkpt lat="46.07742" lon="4.5369">
        <ele>622.40002441406</ele>
        <time>2021-08-18T15:09:57.000Z</time>
      </trkpt>
      <trkpt lat="46.07742" lon="4.53704">
        <ele>622.20001220703</ele>
        <time>2021-08-18T15:10:01.000Z</time>
      </trkpt>
      <trkpt lat="46.0774" lon="4.53729">
        <ele>622.40002441406</ele>
        <time>2021-08-18T15:10:08.000Z</time>
      </trkpt>
      <trkpt lat="46.07739" lon="4.53733">
        <ele>622.40002441406</ele>
        <time>2021-08-18T15:10:09.000Z</time>
      </trkpt>
      <trkpt lat="46.07733" lon="4.53755">
        <ele>621.59997558594</ele>
        <time>2021-08-18T15:10:16.000Z</time>
      </trkpt>
      <trkpt lat="46.07731" lon="4.53763">
        <ele>621.79998779297</ele>
        <time>2021-08-18T15:10:19.000Z</time>
      </trkpt>
      <trkpt lat="46.07728" lon="4.53771">
        <ele>621.59997558594</ele>
        <time>2021-08-18T15:10:22.000Z</time>
      </trkpt>
      <trkpt lat="46.07724" lon="4.53779">
        <ele>621.79998779297</ele>
        <time>2021-08-18T15:10:25.000Z</time>
      </trkpt>
      <trkpt lat="46.0772" lon="4.53785">
        <ele>622.40002441406</ele>
        <time>2021-08-18T15:10:28.000Z</time>
      </trkpt>
      <trkpt lat="46.07716" lon="4.53789">
        <ele>623</ele>
        <time>2021-08-18T15:10:30.000Z</time>
      </trkpt>
      <trkpt lat="46.07712" lon="4.53794">
        <ele>623.79998779297</ele>
        <time>2021-08-18T15:10:32.000Z</time>
      </trkpt>
      <trkpt lat="46.07709" lon="4.53797">
        <ele>624.40002441406</ele>
        <time>2021-08-18T15:10:34.000Z</time>
      </trkpt>
      <trkpt lat="46.07707" lon="4.53799">
        <ele>624.79998779297</ele>
        <time>2021-08-18T15:10:35.000Z</time>
      </trkpt>
      <trkpt lat="46.07705" lon="4.538">
        <ele>625.40002441406</ele>
        <time>2021-08-18T15:10:36.000Z</time>
      </trkpt>
      <trkpt lat="46.077" lon="4.53805">
        <ele>625.79998779297</ele>
        <time>2021-08-18T15:10:40.000Z</time>
      </trkpt>
      <trkpt lat="46.07692" lon="4.53813">
        <ele>626.79998779297</ele>
        <time>2021-08-18T15:10:44.000Z</time>
      </trkpt>
      <trkpt lat="46.07686" lon="4.53816">
        <ele>627.79998779297</ele>
        <time>2021-08-18T15:10:46.000Z</time>
      </trkpt>
      <trkpt lat="46.07682" lon="4.53817">
        <ele>628.59997558594</ele>
        <time>2021-08-18T15:10:47.000Z</time>
      </trkpt>
      <trkpt lat="46.07674" lon="4.53823">
        <ele>629.79998779297</ele>
        <time>2021-08-18T15:10:51.000Z</time>
      </trkpt>
      <trkpt lat="46.07673" lon="4.53824">
        <ele>630</ele>
        <time>2021-08-18T15:10:52.000Z</time>
      </trkpt>
      <trkpt lat="46.07639" lon="4.53876">
        <ele>631.40002441406</ele>
        <time>2021-08-18T15:11:15.000Z</time>
      </trkpt>
      <trkpt lat="46.07637" lon="4.53884">
        <ele>631</ele>
        <time>2021-08-18T15:11:17.000Z</time>
      </trkpt>
      <trkpt lat="46.07636" lon="4.53887">
        <ele>631</ele>
        <time>2021-08-18T15:11:18.000Z</time>
      </trkpt>
      <trkpt lat="46.07635" lon="4.5389">
        <ele>630.79998779297</ele>
        <time>2021-08-18T15:11:19.000Z</time>
      </trkpt>
      <trkpt lat="46.07628" lon="4.53903">
        <ele>630.40002441406</ele>
        <time>2021-08-18T15:11:23.000Z</time>
      </trkpt>
      <trkpt lat="46.07618" lon="4.53924">
        <ele>630.59997558594</ele>
        <time>2021-08-18T15:11:30.000Z</time>
      </trkpt>
      <trkpt lat="46.07615" lon="4.5393">
        <ele>631</ele>
        <time>2021-08-18T15:11:32.000Z</time>
      </trkpt>
      <trkpt lat="46.07612" lon="4.53936">
        <ele>631.40002441406</ele>
        <time>2021-08-18T15:11:34.000Z</time>
      </trkpt>
      <trkpt lat="46.07611" lon="4.53938">
        <ele>631.59997558594</ele>
        <time>2021-08-18T15:11:35.000Z</time>
      </trkpt>
      <trkpt lat="46.07608" lon="4.53944">
        <ele>632</ele>
        <time>2021-08-18T15:11:37.000Z</time>
      </trkpt>
      <trkpt lat="46.07606" lon="4.53946">
        <ele>632.40002441406</ele>
        <time>2021-08-18T15:11:38.000Z</time>
      </trkpt>
      <trkpt lat="46.07603" lon="4.53952">
        <ele>633</ele>
        <time>2021-08-18T15:11:40.000Z</time>
      </trkpt>
      <trkpt lat="46.07597" lon="4.53964">
        <ele>633.20001220703</ele>
        <time>2021-08-18T15:11:46.000Z</time>
      </trkpt>
      <trkpt lat="46.07591" lon="4.53974">
        <ele>634</ele>
        <time>2021-08-18T15:11:52.000Z</time>
      </trkpt>
      <trkpt lat="46.07588" lon="4.53977">
        <ele>634.59997558594</ele>
        <time>2021-08-18T15:11:54.000Z</time>
      </trkpt>
      <trkpt lat="46.07585" lon="4.5398">
        <ele>635.59997558594</ele>
        <time>2021-08-18T15:11:56.000Z</time>
      </trkpt>
      <trkpt lat="46.07583" lon="4.53983">
        <ele>636.20001220703</ele>
        <time>2021-08-18T15:11:58.000Z</time>
      </trkpt>
      <trkpt lat="46.0758" lon="4.53986">
        <ele>637</ele>
        <time>2021-08-18T15:12:00.000Z</time>
      </trkpt>
      <trkpt lat="46.07576" lon="4.53988">
        <ele>637.79998779297</ele>
        <time>2021-08-18T15:12:02.000Z</time>
      </trkpt>
      <trkpt lat="46.07573" lon="4.5399">
        <ele>638.79998779297</ele>
        <time>2021-08-18T15:12:04.000Z</time>
      </trkpt>
      <trkpt lat="46.0757" lon="4.53991">
        <ele>639.59997558594</ele>
        <time>2021-08-18T15:12:06.000Z</time>
      </trkpt>
      <trkpt lat="46.07563" lon="4.53993">
        <ele>641.40002441406</ele>
        <time>2021-08-18T15:12:09.000Z</time>
      </trkpt>
      <trkpt lat="46.07547" lon="4.53997">
        <ele>646.20001220703</ele>
        <time>2021-08-18T15:12:14.000Z</time>
      </trkpt>
      <trkpt lat="46.07542" lon="4.53999">
        <ele>647.59997558594</ele>
        <time>2021-08-18T15:12:15.000Z</time>
      </trkpt>
      <trkpt lat="46.07538" lon="4.53999">
        <ele>648.59997558594</ele>
        <time>2021-08-18T15:12:16.000Z</time>
      </trkpt>
      <trkpt lat="46.07524" lon="4.53998">
        <ele>652.20001220703</ele>
        <time>2021-08-18T15:12:21.000Z</time>
      </trkpt>
      <trkpt lat="46.07522" lon="4.53997">
        <ele>652.79998779297</ele>
        <time>2021-08-18T15:12:22.000Z</time>
      </trkpt>
      <trkpt lat="46.07517" lon="4.53996">
        <ele>654.20001220703</ele>
        <time>2021-08-18T15:12:24.000Z</time>
      </trkpt>
      <trkpt lat="46.07513" lon="4.53995">
        <ele>655</ele>
        <time>2021-08-18T15:12:26.000Z</time>
      </trkpt>
      <trkpt lat="46.07509" lon="4.53996">
        <ele>656</ele>
        <time>2021-08-18T15:12:28.000Z</time>
      </trkpt>
      <trkpt lat="46.07501" lon="4.54004">
        <ele>656.40002441406</ele>
        <time>2021-08-18T15:12:33.000Z</time>
      </trkpt>
      <trkpt lat="46.07498" lon="4.54008">
        <ele>656.40002441406</ele>
        <time>2021-08-18T15:12:34.000Z</time>
      </trkpt>
      <trkpt lat="46.07494" lon="4.54017">
        <ele>656.59997558594</ele>
        <time>2021-08-18T15:12:36.000Z</time>
      </trkpt>
      <trkpt lat="46.07491" lon="4.54024">
        <ele>656.79998779297</ele>
        <time>2021-08-18T15:12:38.000Z</time>
      </trkpt>
      <trkpt lat="46.07488" lon="4.54032">
        <ele>657</ele>
        <time>2021-08-18T15:12:40.000Z</time>
      </trkpt>
      <trkpt lat="46.07487" lon="4.54036">
        <ele>657.40002441406</ele>
        <time>2021-08-18T15:12:41.000Z</time>
      </trkpt>
      <trkpt lat="46.07485" lon="4.54039">
        <ele>657.79998779297</ele>
        <time>2021-08-18T15:12:42.000Z</time>
      </trkpt>
      <trkpt lat="46.07484" lon="4.54042">
        <ele>658</ele>
        <time>2021-08-18T15:12:43.000Z</time>
      </trkpt>
      <trkpt lat="46.07479" lon="4.54061">
        <ele>659.59997558594</ele>
        <time>2021-08-18T15:12:49.000Z</time>
      </trkpt>
      <trkpt lat="46.07476" lon="4.54074">
        <ele>661.40002441406</ele>
        <time>2021-08-18T15:12:53.000Z</time>
      </trkpt>
      <trkpt lat="46.07472" lon="4.54085">
        <ele>663.20001220703</ele>
        <time>2021-08-18T15:12:57.000Z</time>
      </trkpt>
      <trkpt lat="46.0747" lon="4.54088">
        <ele>664.20001220703</ele>
        <time>2021-08-18T15:12:58.000Z</time>
      </trkpt>
      <trkpt lat="46.07466" lon="4.54098">
        <ele>666.79998779297</ele>
        <time>2021-08-18T15:13:01.000Z</time>
      </trkpt>
      <trkpt lat="46.07463" lon="4.54101">
        <ele>667.79998779297</ele>
        <time>2021-08-18T15:13:02.000Z</time>
      </trkpt>
      <trkpt lat="46.07462" lon="4.54105">
        <ele>668.79998779297</ele>
        <time>2021-08-18T15:13:03.000Z</time>
      </trkpt>
      <trkpt lat="46.0746" lon="4.5411">
        <ele>669.79998779297</ele>
        <time>2021-08-18T15:13:04.000Z</time>
      </trkpt>
      <trkpt lat="46.07459" lon="4.54114">
        <ele>670.40002441406</ele>
        <time>2021-08-18T15:13:05.000Z</time>
      </trkpt>
      <trkpt lat="46.07459" lon="4.54121">
        <ele>671.20001220703</ele>
        <time>2021-08-18T15:13:07.000Z</time>
      </trkpt>
      <trkpt lat="46.07463" lon="4.54131">
        <ele>671.59997558594</ele>
        <time>2021-08-18T15:13:10.000Z</time>
      </trkpt>
      <trkpt lat="46.0747" lon="4.54138">
        <ele>671.40002441406</ele>
        <time>2021-08-18T15:13:13.000Z</time>
      </trkpt>
      <trkpt lat="46.07477" lon="4.54144">
        <ele>671.40002441406</ele>
        <time>2021-08-18T15:13:16.000Z</time>
      </trkpt>
      <trkpt lat="46.07482" lon="4.54147">
        <ele>671.20001220703</ele>
        <time>2021-08-18T15:13:18.000Z</time>
      </trkpt>
      <trkpt lat="46.07487" lon="4.5415">
        <ele>671</ele>
        <time>2021-08-18T15:13:20.000Z</time>
      </trkpt>
      <trkpt lat="46.07492" lon="4.54152">
        <ele>670.59997558594</ele>
        <time>2021-08-18T15:13:22.000Z</time>
      </trkpt>
      <trkpt lat="46.07497" lon="4.54155">
        <ele>670.59997558594</ele>
        <time>2021-08-18T15:13:24.000Z</time>
      </trkpt>
      <trkpt lat="46.07502" lon="4.54158">
        <ele>670.40002441406</ele>
        <time>2021-08-18T15:13:26.000Z</time>
      </trkpt>
      <trkpt lat="46.07506" lon="4.5416">
        <ele>670</ele>
        <time>2021-08-18T15:13:28.000Z</time>
      </trkpt>
      <trkpt lat="46.0751" lon="4.54163">
        <ele>670</ele>
        <time>2021-08-18T15:13:30.000Z</time>
      </trkpt>
      <trkpt lat="46.07514" lon="4.54166">
        <ele>669.79998779297</ele>
        <time>2021-08-18T15:13:32.000Z</time>
      </trkpt>
      <trkpt lat="46.07517" lon="4.54167">
        <ele>669.79998779297</ele>
        <time>2021-08-18T15:13:33.000Z</time>
      </trkpt>
      <trkpt lat="46.07519" lon="4.54168">
        <ele>669.59997558594</ele>
        <time>2021-08-18T15:13:34.000Z</time>
      </trkpt>
      <trkpt lat="46.07523" lon="4.54172">
        <ele>669.40002441406</ele>
        <time>2021-08-18T15:13:36.000Z</time>
      </trkpt>
      <trkpt lat="46.0753" lon="4.54178">
        <ele>669.20001220703</ele>
        <time>2021-08-18T15:13:40.000Z</time>
      </trkpt>
      <trkpt lat="46.07536" lon="4.54185">
        <ele>669.59997558594</ele>
        <time>2021-08-18T15:13:43.000Z</time>
      </trkpt>
      <trkpt lat="46.0754" lon="4.54189">
        <ele>669.59997558594</ele>
        <time>2021-08-18T15:13:45.000Z</time>
      </trkpt>
      <trkpt lat="46.07542" lon="4.54191">
        <ele>669.59997558594</ele>
        <time>2021-08-18T15:13:46.000Z</time>
      </trkpt>
      <trkpt lat="46.07544" lon="4.54193">
        <ele>669.59997558594</ele>
        <time>2021-08-18T15:13:47.000Z</time>
      </trkpt>
      <trkpt lat="46.07549" lon="4.54203">
        <ele>669.40002441406</ele>
        <time>2021-08-18T15:13:51.000Z</time>
      </trkpt>
      <trkpt lat="46.07554" lon="4.54212">
        <ele>669</ele>
        <time>2021-08-18T15:13:55.000Z</time>
      </trkpt>
      <trkpt lat="46.07557" lon="4.54218">
        <ele>669</ele>
        <time>2021-08-18T15:13:57.000Z</time>
      </trkpt>
      <trkpt lat="46.0756" lon="4.54226">
        <ele>669.20001220703</ele>
        <time>2021-08-18T15:14:00.000Z</time>
      </trkpt>
      <trkpt lat="46.07561" lon="4.54231">
        <ele>669.20001220703</ele>
        <time>2021-08-18T15:14:02.000Z</time>
      </trkpt>
      <trkpt lat="46.07567" lon="4.54247">
        <ele>669</ele>
        <time>2021-08-18T15:14:08.000Z</time>
      </trkpt>
      <trkpt lat="46.07568" lon="4.5425">
        <ele>669</ele>
        <time>2021-08-18T15:14:09.000Z</time>
      </trkpt>
      <trkpt lat="46.0757" lon="4.54255">
        <ele>669.40002441406</ele>
        <time>2021-08-18T15:14:11.000Z</time>
      </trkpt>
      <trkpt lat="46.07572" lon="4.54265">
        <ele>670.40002441406</ele>
        <time>2021-08-18T15:14:15.000Z</time>
      </trkpt>
      <trkpt lat="46.07579" lon="4.54282">
        <ele>672.20001220703</ele>
        <time>2021-08-18T15:14:21.000Z</time>
      </trkpt>
      <trkpt lat="46.07589" lon="4.54301">
        <ele>675.20001220703</ele>
        <time>2021-08-18T15:14:28.000Z</time>
      </trkpt>
      <trkpt lat="46.07595" lon="4.54309">
        <ele>676.40002441406</ele>
        <time>2021-08-18T15:14:31.000Z</time>
      </trkpt>
      <trkpt lat="46.07603" lon="4.54315">
        <ele>678</ele>
        <time>2021-08-18T15:14:34.000Z</time>
      </trkpt>
      <trkpt lat="46.07605" lon="4.54316">
        <ele>678.79998779297</ele>
        <time>2021-08-18T15:14:35.000Z</time>
      </trkpt>
      <trkpt lat="46.07618" lon="4.54322">
        <ele>681.59997558594</ele>
        <time>2021-08-18T15:14:41.000Z</time>
      </trkpt>
      <trkpt lat="46.07621" lon="4.54323">
        <ele>682</ele>
        <time>2021-08-18T15:14:42.000Z</time>
      </trkpt>
      <trkpt lat="46.07623" lon="4.54323">
        <ele>682.40002441406</ele>
        <time>2021-08-18T15:14:43.000Z</time>
      </trkpt>
      <trkpt lat="46.07629" lon="4.54324">
        <ele>682.79998779297</ele>
        <time>2021-08-18T15:14:45.000Z</time>
      </trkpt>
      <trkpt lat="46.07637" lon="4.54323">
        <ele>683</ele>
        <time>2021-08-18T15:14:48.000Z</time>
      </trkpt>
      <trkpt lat="46.07642" lon="4.54322">
        <ele>683</ele>
        <time>2021-08-18T15:14:50.000Z</time>
      </trkpt>
      <trkpt lat="46.07649" lon="4.54319">
        <ele>683.20001220703</ele>
        <time>2021-08-18T15:14:53.000Z</time>
      </trkpt>
      <trkpt lat="46.07655" lon="4.54317">
        <ele>683.59997558594</ele>
        <time>2021-08-18T15:14:56.000Z</time>
      </trkpt>
      <trkpt lat="46.0766" lon="4.54316">
        <ele>683.59997558594</ele>
        <time>2021-08-18T15:14:58.000Z</time>
      </trkpt>
      <trkpt lat="46.07676" lon="4.54311">
        <ele>684.20001220703</ele>
        <time>2021-08-18T15:15:05.000Z</time>
      </trkpt>
      <trkpt lat="46.07681" lon="4.5431">
        <ele>684.59997558594</ele>
        <time>2021-08-18T15:15:07.000Z</time>
      </trkpt>
      <trkpt lat="46.07687" lon="4.54307">
        <ele>684.79998779297</ele>
        <time>2021-08-18T15:15:10.000Z</time>
      </trkpt>
      <trkpt lat="46.07703" lon="4.54303">
        <ele>686.20001220703</ele>
        <time>2021-08-18T15:15:17.000Z</time>
      </trkpt>
      <trkpt lat="46.07706" lon="4.54303">
        <ele>686.20001220703</ele>
        <time>2021-08-18T15:15:18.000Z</time>
      </trkpt>
      <trkpt lat="46.07713" lon="4.543">
        <ele>686.20001220703</ele>
        <time>2021-08-18T15:15:21.000Z</time>
      </trkpt>
      <trkpt lat="46.07718" lon="4.54299">
        <ele>686.40002441406</ele>
        <time>2021-08-18T15:15:23.000Z</time>
      </trkpt>
      <trkpt lat="46.07727" lon="4.54298">
        <ele>687.20001220703</ele>
        <time>2021-08-18T15:15:27.000Z</time>
      </trkpt>
      <trkpt lat="46.07737" lon="4.54297">
        <ele>688</ele>
        <time>2021-08-18T15:15:31.000Z</time>
      </trkpt>
      <trkpt lat="46.07741" lon="4.54296">
        <ele>688.20001220703</ele>
        <time>2021-08-18T15:15:33.000Z</time>
      </trkpt>
      <trkpt lat="46.07755" lon="4.54294">
        <ele>689.20001220703</ele>
        <time>2021-08-18T15:15:39.000Z</time>
      </trkpt>
      <trkpt lat="46.0777" lon="4.54292">
        <ele>690.40002441406</ele>
        <time>2021-08-18T15:15:46.000Z</time>
      </trkpt>
      <trkpt lat="46.07782" lon="4.54291">
        <ele>691</ele>
        <time>2021-08-18T15:15:51.000Z</time>
      </trkpt>
      <trkpt lat="46.0779" lon="4.5429">
        <ele>691.20001220703</ele>
        <time>2021-08-18T15:15:55.000Z</time>
      </trkpt>
      <trkpt lat="46.07802" lon="4.5429">
        <ele>692</ele>
        <time>2021-08-18T15:16:01.000Z</time>
      </trkpt>
      <trkpt lat="46.07804" lon="4.5429">
        <ele>692</ele>
        <time>2021-08-18T15:16:02.000Z</time>
      </trkpt>
      <trkpt lat="46.0782" lon="4.54288">
        <ele>692.59997558594</ele>
        <time>2021-08-18T15:16:09.000Z</time>
      </trkpt>
      <trkpt lat="46.07838" lon="4.54288">
        <ele>692.20001220703</ele>
        <time>2021-08-18T15:16:17.000Z</time>
      </trkpt>
      <trkpt lat="46.07842" lon="4.54289">
        <ele>692.40002441406</ele>
        <time>2021-08-18T15:16:19.000Z</time>
      </trkpt>
      <trkpt lat="46.07856" lon="4.54294">
        <ele>692</ele>
        <time>2021-08-18T15:16:25.000Z</time>
      </trkpt>
      <trkpt lat="46.07865" lon="4.54298">
        <ele>690.79998779297</ele>
        <time>2021-08-18T15:16:29.000Z</time>
      </trkpt>
      <trkpt lat="46.07869" lon="4.54301">
        <ele>690.40002441406</ele>
        <time>2021-08-18T15:16:31.000Z</time>
      </trkpt>
      <trkpt lat="46.07875" lon="4.54306">
        <ele>690.20001220703</ele>
        <time>2021-08-18T15:16:34.000Z</time>
      </trkpt>
      <trkpt lat="46.07884" lon="4.54316">
        <ele>690.59997558594</ele>
        <time>2021-08-18T15:16:39.000Z</time>
      </trkpt>
      <trkpt lat="46.07891" lon="4.54325">
        <ele>691</ele>
        <time>2021-08-18T15:16:43.000Z</time>
      </trkpt>
      <trkpt lat="46.07898" lon="4.54334">
        <ele>691.40002441406</ele>
        <time>2021-08-18T15:16:47.000Z</time>
      </trkpt>
      <trkpt lat="46.07901" lon="4.54339">
        <ele>691.59997558594</ele>
        <time>2021-08-18T15:16:49.000Z</time>
      </trkpt>
      <trkpt lat="46.07906" lon="4.54349">
        <ele>692.40002441406</ele>
        <time>2021-08-18T15:16:53.000Z</time>
      </trkpt>
      <trkpt lat="46.0791" lon="4.54358">
        <ele>693.20001220703</ele>
        <time>2021-08-18T15:16:56.000Z</time>
      </trkpt>
      <trkpt lat="46.07912" lon="4.5436">
        <ele>693.40002441406</ele>
        <time>2021-08-18T15:16:57.000Z</time>
      </trkpt>
      <trkpt lat="46.07917" lon="4.54374">
        <ele>695</ele>
        <time>2021-08-18T15:17:02.000Z</time>
      </trkpt>
      <trkpt lat="46.07923" lon="4.54385">
        <ele>696.20001220703</ele>
        <time>2021-08-18T15:17:06.000Z</time>
      </trkpt>
      <trkpt lat="46.07924" lon="4.54388">
        <ele>696.59997558594</ele>
        <time>2021-08-18T15:17:07.000Z</time>
      </trkpt>
      <trkpt lat="46.07926" lon="4.54394">
        <ele>697.20001220703</ele>
        <time>2021-08-18T15:17:09.000Z</time>
      </trkpt>
      <trkpt lat="46.07929" lon="4.54402">
        <ele>697.79998779297</ele>
        <time>2021-08-18T15:17:12.000Z</time>
      </trkpt>
      <trkpt lat="46.07932" lon="4.5441">
        <ele>698</ele>
        <time>2021-08-18T15:17:15.000Z</time>
      </trkpt>
      <trkpt lat="46.07936" lon="4.54419">
        <ele>698.40002441406</ele>
        <time>2021-08-18T15:17:18.000Z</time>
      </trkpt>
      <trkpt lat="46.07938" lon="4.54431">
        <ele>699.79998779297</ele>
        <time>2021-08-18T15:17:22.000Z</time>
      </trkpt>
      <trkpt lat="46.07942" lon="4.54451">
        <ele>702</ele>
        <time>2021-08-18T15:17:28.000Z</time>
      </trkpt>
      <trkpt lat="46.07943" lon="4.54458">
        <ele>702.40002441406</ele>
        <time>2021-08-18T15:17:30.000Z</time>
      </trkpt>
      <trkpt lat="46.07945" lon="4.54479">
        <ele>704.59997558594</ele>
        <time>2021-08-18T15:17:37.000Z</time>
      </trkpt>
      <trkpt lat="46.07949" lon="4.54503">
        <ele>706</ele>
        <time>2021-08-18T15:17:45.000Z</time>
      </trkpt>
      <trkpt lat="46.0795" lon="4.54517">
        <ele>707</ele>
        <time>2021-08-18T15:17:50.000Z</time>
      </trkpt>
      <trkpt lat="46.0795" lon="4.5452">
        <ele>707.40002441406</ele>
        <time>2021-08-18T15:17:51.000Z</time>
      </trkpt>
      <trkpt lat="46.07948" lon="4.54544">
        <ele>709.79998779297</ele>
        <time>2021-08-18T15:17:58.000Z</time>
      </trkpt>
      <trkpt lat="46.07945" lon="4.5457">
        <ele>715.40002441406</ele>
        <time>2021-08-18T15:18:06.000Z</time>
      </trkpt>
      <trkpt lat="46.07944" lon="4.54583">
        <ele>717.20001220703</ele>
        <time>2021-08-18T15:18:10.000Z</time>
      </trkpt>
      <trkpt lat="46.07945" lon="4.5459">
        <ele>718</ele>
        <time>2021-08-18T15:18:12.000Z</time>
      </trkpt>
      <trkpt lat="46.07945" lon="4.54597">
        <ele>718.79998779297</ele>
        <time>2021-08-18T15:18:14.000Z</time>
      </trkpt>
      <trkpt lat="46.07944" lon="4.54607">
        <ele>719.79998779297</ele>
        <time>2021-08-18T15:18:17.000Z</time>
      </trkpt>
      <trkpt lat="46.07944" lon="4.5461">
        <ele>720</ele>
        <time>2021-08-18T15:18:18.000Z</time>
      </trkpt>
      <trkpt lat="46.07944" lon="4.54623">
        <ele>721.40002441406</ele>
        <time>2021-08-18T15:18:22.000Z</time>
      </trkpt>
      <trkpt lat="46.07945" lon="4.5463">
        <ele>721.59997558594</ele>
        <time>2021-08-18T15:18:24.000Z</time>
      </trkpt>
      <trkpt lat="46.07946" lon="4.54633">
        <ele>721.79998779297</ele>
        <time>2021-08-18T15:18:25.000Z</time>
      </trkpt>
      <trkpt lat="46.0795" lon="4.54646">
        <ele>721.79998779297</ele>
        <time>2021-08-18T15:18:29.000Z</time>
      </trkpt>
      <trkpt lat="46.07952" lon="4.5465">
        <ele>722</ele>
        <time>2021-08-18T15:18:30.000Z</time>
      </trkpt>
      <trkpt lat="46.07957" lon="4.54661">
        <ele>722</ele>
        <time>2021-08-18T15:18:33.000Z</time>
      </trkpt>
      <trkpt lat="46.07963" lon="4.54672">
        <ele>721.79998779297</ele>
        <time>2021-08-18T15:18:36.000Z</time>
      </trkpt>
      <trkpt lat="46.07971" lon="4.54687">
        <ele>721.20001220703</ele>
        <time>2021-08-18T15:18:40.000Z</time>
      </trkpt>
      <trkpt lat="46.07972" lon="4.54695">
        <ele>721.40002441406</ele>
        <time>2021-08-18T15:18:42.000Z</time>
      </trkpt>
      <trkpt lat="46.07971" lon="4.54701">
        <ele>722</ele>
        <time>2021-08-18T15:18:44.000Z</time>
      </trkpt>
      <trkpt lat="46.0797" lon="4.54712">
        <ele>722.59997558594</ele>
        <time>2021-08-18T15:18:47.000Z</time>
      </trkpt>
      <trkpt lat="46.0797" lon="4.54716">
        <ele>722.79998779297</ele>
        <time>2021-08-18T15:18:48.000Z</time>
      </trkpt>
      <trkpt lat="46.0797" lon="4.54722">
        <ele>723</ele>
        <time>2021-08-18T15:18:50.000Z</time>
      </trkpt>
      <trkpt lat="46.07971" lon="4.54732">
        <ele>723.20001220703</ele>
        <time>2021-08-18T15:18:53.000Z</time>
      </trkpt>
      <trkpt lat="46.07972" lon="4.54739">
        <ele>723.40002441406</ele>
        <time>2021-08-18T15:18:55.000Z</time>
      </trkpt>
      <trkpt lat="46.07972" lon="4.54746">
        <ele>723.59997558594</ele>
        <time>2021-08-18T15:18:57.000Z</time>
      </trkpt>
    </trkseg>
  </trk>
</gpx>